createdAt,value
2018-11-27T00:03:36.303Z,40.97
2018-11-27T00:07:44.564Z,45.83
2018-11-27T00:11:52.834Z,45.13
2018-11-27T00:16:01.159Z,39.20
2018-11-27T00:20:10.682Z,45.03
2018-11-27T00:24:19.035Z,48.47
2018-11-27T00:28:27.392Z,45.00
2018-11-27T00:32:35.686Z,49.07
2018-11-27T00:36:43.980Z,50.23
2018-11-27T00:40:52.291Z,42.80
2018-11-27T00:45:00.584Z,46.55
2018-11-27T00:49:08.814Z,41.00
2018-11-27T00:53:17.115Z,46.90
2018-11-27T00:57:25.390Z,44.87
2018-11-27T01:01:33.714Z,45.48
2018-11-27T01:05:42.031Z,46.07
2018-11-27T01:09:50.370Z,44.30
2018-11-27T01:13:58.687Z,45.77
2018-11-27T01:18:07.055Z,43.73
2018-11-27T01:22:15.367Z,41.80
2018-11-27T01:26:23.665Z,45.57
2018-11-27T01:30:31.934Z,45.93
2018-11-27T01:34:40.222Z,45.20
2018-11-27T01:38:48.506Z,47.83
2018-11-27T01:42:57.602Z,52.77
2018-11-27T01:47:06.248Z,44.50
2018-11-27T01:51:14.581Z,50.73
2018-11-27T01:55:23.195Z,44.90
2018-11-27T01:59:31.551Z,47.00
2018-11-27T02:03:39.846Z,45.00
2018-11-27T02:07:48.128Z,55.60
2018-11-27T02:11:56.402Z,49.27
2018-11-27T02:16:04.749Z,50.97
2018-11-27T02:20:13.002Z,44.40
2018-11-27T02:24:21.306Z,42.23
2018-11-27T02:28:29.592Z,50.23
2018-11-27T02:32:37.871Z,43.67
2018-11-27T02:36:46.150Z,41.03
2018-11-27T02:40:54.412Z,45.20
2018-11-27T02:45:02.644Z,43.23
2018-11-27T02:49:10.935Z,49.33
2018-11-27T02:53:19.294Z,43.50
2018-11-27T02:57:27.615Z,40.67
2018-11-27T03:01:35.921Z,40.57
2018-11-27T03:05:44.224Z,44.67
2018-11-27T03:09:52.508Z,50.40
2018-11-27T03:14:00.545Z,50.80
2018-11-27T03:18:08.890Z,44.97
2018-11-27T03:22:20.374Z,38.70
2018-11-27T03:26:28.650Z,50.13
2018-11-27T03:30:36.915Z,39.67
2018-11-27T03:34:45.211Z,46.60
2018-11-27T03:38:53.466Z,49.43
2018-11-27T03:43:01.560Z,41.40
2018-11-27T03:47:09.890Z,41.10
2018-11-27T03:51:18.215Z,36.00
2018-11-27T03:55:26.503Z,39.87
2018-11-27T03:59:34.884Z,42.00
2018-11-27T04:03:43.132Z,40.97
2018-11-27T04:07:51.395Z,44.17
2018-11-27T04:11:59.659Z,37.00
2018-11-27T04:16:07.977Z,41.80
2018-11-27T04:20:16.278Z,40.50
2018-11-27T04:24:24.698Z,42.73
2018-11-27T04:28:32.982Z,39.50
2018-11-27T04:32:41.537Z,42.53
2018-11-27T04:36:49.837Z,49.60
2018-11-27T04:40:58.154Z,45.83
2018-11-27T04:45:09.178Z,42.50
2018-11-27T04:49:17.493Z,39.97
2018-11-27T04:53:25.849Z,42.40
2018-11-27T04:57:34.154Z,44.80
2018-11-27T05:01:42.497Z,44.73
2018-11-27T05:05:50.830Z,36.17
2018-11-27T05:09:59.115Z,43.20
2018-11-27T05:14:07.523Z,39.00
2018-11-27T05:18:15.851Z,44.90
2018-11-27T05:22:24.160Z,35.00
2018-11-27T05:26:32.486Z,42.10
2018-11-27T05:30:40.803Z,44.00
2018-11-27T05:34:49.118Z,40.23
2018-11-27T05:38:57.470Z,40.27
2018-11-27T05:43:09.322Z,42.17
2018-11-27T05:47:17.429Z,44.30
2018-11-27T05:51:25.727Z,40.43
2018-11-27T05:55:34.066Z,39.27
2018-11-27T05:59:42.350Z,36.10
2018-11-27T06:03:50.649Z,48.23
2018-11-27T06:07:58.955Z,38.05
2018-11-27T06:12:07.294Z,41.13
2018-11-27T06:16:15.640Z,37.57
2018-11-27T06:20:25.113Z,47.73
2018-11-27T06:24:34.545Z,47.07
2018-11-27T06:28:42.946Z,40.03
2018-11-27T06:32:51.272Z,36.40
2018-11-27T06:37:00.591Z,38.30
2018-11-27T06:41:09.112Z,36.17
2018-11-27T06:45:18.433Z,36.50
2018-11-27T06:49:26.731Z,42.73
2018-11-27T06:53:35.170Z,46.23
2018-11-27T06:57:43.509Z,41.40
2018-11-27T07:01:51.838Z,38.10
2018-11-27T07:06:00.187Z,38.23
2018-11-27T07:10:13.944Z,38.90
2018-11-27T07:14:22.200Z,46.80
2018-11-27T07:18:30.510Z,43.53
2018-11-27T07:22:38.803Z,37.77
2018-11-27T07:26:47.095Z,46.10
2018-11-27T07:30:55.436Z,44.10
2018-11-27T07:35:03.728Z,31.77
2018-11-27T07:39:12.011Z,39.43
2018-11-27T07:43:22.570Z,35.90
2018-11-27T07:47:30.829Z,33.40
2018-11-27T07:51:39.211Z,38.50
2018-11-27T07:55:47.554Z,41.13
2018-11-27T07:59:56.004Z,36.63
2018-11-27T08:04:04.440Z,38.37
2018-11-27T08:08:15.180Z,33.17
2018-11-27T08:12:23.532Z,37.37
2018-11-27T08:16:31.855Z,45.13
2018-11-27T08:20:40.194Z,38.30
2018-11-27T08:24:48.220Z,35.03
2018-11-27T08:28:56.531Z,37.17
2018-11-27T08:33:04.842Z,34.37
2018-11-27T08:37:13.152Z,36.53
2018-11-27T08:41:21.605Z,30.13
2018-11-27T08:45:29.896Z,29.90
2018-11-27T08:49:38.247Z,39.17
2018-11-27T08:53:46.611Z,37.43
2018-11-27T08:57:55.136Z,41.63
2018-11-27T09:02:03.472Z,35.37
2018-11-27T09:06:11.777Z,40.10
2018-11-27T09:10:22.493Z,35.37
2018-11-27T09:14:30.823Z,38.33
2018-11-27T09:18:39.153Z,33.85
2018-11-27T09:22:47.474Z,36.17
2018-11-27T09:26:55.703Z,37.00
2018-11-27T09:31:04.068Z,35.13
2018-11-27T09:35:12.367Z,35.00
2018-11-27T09:39:20.859Z,33.37
2018-11-27T09:43:29.190Z,28.60
2018-11-27T09:47:37.502Z,32.80
2018-11-27T09:51:45.820Z,36.63
2018-11-27T09:55:54.093Z,33.20
2018-11-27T10:00:02.351Z,30.07
2018-11-27T10:04:10.641Z,29.87
2018-11-27T10:08:19.015Z,33.53
2018-11-27T10:12:27.335Z,34.53
2018-11-27T10:16:35.669Z,31.70
2018-11-27T10:20:44.022Z,28.63
2018-11-27T10:24:53.147Z,29.93
2018-11-27T10:29:00.837Z,27.43
2018-11-27T10:33:10.376Z,26.93
2018-11-27T10:37:18.739Z,28.17
2018-11-27T10:41:27.313Z,33.53
2018-11-27T10:45:35.711Z,30.07
2018-11-27T10:49:44.094Z,33.80
2018-11-27T10:53:52.440Z,30.00
2018-11-27T10:58:00.740Z,27.73
2018-11-27T11:02:14.546Z,28.37
2018-11-27T11:06:23.011Z,31.93
2018-11-27T11:10:31.308Z,33.97
2018-11-27T11:14:39.616Z,30.90
2018-11-27T11:18:47.963Z,27.17
2018-11-27T11:22:56.247Z,27.83
2018-11-27T11:27:04.696Z,28.00
2018-11-27T11:31:13.000Z,28.23
2018-11-27T11:35:21.024Z,25.30
2018-11-27T11:39:29.388Z,27.63
2018-11-27T11:43:37.739Z,24.80
2018-11-27T11:47:46.148Z,30.60
2018-11-27T11:51:54.457Z,27.60
2018-11-27T11:56:02.889Z,26.30
2018-11-27T12:00:13.432Z,25.93
2018-11-27T12:04:21.753Z,27.17
2018-11-27T12:08:30.130Z,24.13
2018-11-27T12:12:38.464Z,23.27
2018-11-27T12:16:46.768Z,19.43
2018-11-27T12:20:55.096Z,22.67
2018-11-27T12:25:03.486Z,21.20
2018-11-27T12:29:11.746Z,19.93
2018-11-27T12:33:20.070Z,22.90
2018-11-27T12:37:28.365Z,34.17
2018-11-27T12:41:36.669Z,24.00
2018-11-27T12:45:45.262Z,22.52
2018-11-27T12:49:53.583Z,25.47
2018-11-27T12:54:01.870Z,20.30
2018-11-27T12:58:10.140Z,20.23
2018-11-27T13:02:18.442Z,28.80
2018-11-27T13:06:27.882Z,23.33
2018-11-27T13:10:35.078Z,23.00
2018-11-27T13:14:43.435Z,17.90
2018-11-27T13:18:51.810Z,19.07
2018-11-27T13:23:00.084Z,23.13
2018-11-27T13:27:08.469Z,21.30
2018-11-27T13:31:18.551Z,19.57
2018-11-27T13:35:26.609Z,25.23
2018-11-27T13:39:37.086Z,23.80
2018-11-27T13:43:45.383Z,23.07
2018-11-27T13:47:53.680Z,21.53
2018-11-27T13:52:02.059Z,20.03
2018-11-27T13:56:10.355Z,21.73
2018-11-27T14:00:19.553Z,27.80
2018-11-27T14:04:27.883Z,22.80
2018-11-27T14:08:36.324Z,21.97
2018-11-27T14:12:44.635Z,23.87
2018-11-27T14:16:53.074Z,25.03
2018-11-27T14:21:01.344Z,19.70
2018-11-27T14:25:11.126Z,22.50
2018-11-27T14:29:19.620Z,19.80
2018-11-27T14:33:27.901Z,20.25
2018-11-27T14:37:36.237Z,22.63
2018-11-27T14:41:44.614Z,20.03
2018-11-27T14:45:52.922Z,21.17
2018-11-27T14:50:04.238Z,20.63
2018-11-27T14:54:10.292Z,18.73
2018-11-27T14:58:18.602Z,21.60
2018-11-27T15:02:26.895Z,22.73
2018-11-27T15:06:35.193Z,18.53
2018-11-27T15:10:43.435Z,22.50
2018-11-27T15:14:51.743Z,21.90
2018-11-27T15:19:00.053Z,21.07
2018-11-27T15:23:08.495Z,19.55
2018-11-27T15:27:16.779Z,19.60
2018-11-27T15:31:25.116Z,27.60
2018-11-27T15:35:33.556Z,17.67
2018-11-27T15:39:41.948Z,25.67
2018-11-27T15:43:50.269Z,20.73
2018-11-27T15:47:58.661Z,19.20
2018-11-27T15:52:06.976Z,20.63
2018-11-27T15:56:15.371Z,22.63
2018-11-27T16:00:23.711Z,21.27
2018-11-27T16:04:32.004Z,28.77
2018-11-27T16:08:40.296Z,24.30
2018-11-27T16:12:48.593Z,24.80
2018-11-27T16:16:56.883Z,22.77
2018-11-27T16:21:05.462Z,24.87
2018-11-27T16:25:16.759Z,21.87
2018-11-27T16:29:25.061Z,27.77
2018-11-27T16:33:33.327Z,24.30
2018-11-27T16:37:42.227Z,22.73
2018-11-27T16:41:50.515Z,24.90
2018-11-27T16:45:58.923Z,23.20
2018-11-27T16:50:08.734Z,28.10
2018-11-27T16:54:17.069Z,27.80
2018-11-27T16:58:27.320Z,26.27
2018-11-27T17:02:35.619Z,28.47
2018-11-27T17:06:43.965Z,22.33
2018-11-27T17:10:52.281Z,23.33
2018-11-27T17:15:00.562Z,27.43
2018-11-27T17:19:09.349Z,29.27
2018-11-27T17:23:18.476Z,26.90
2018-11-27T17:27:26.815Z,26.80
2018-11-27T17:31:35.062Z,21.27
2018-11-27T17:35:43.419Z,23.37
2018-11-27T17:39:51.714Z,25.00
2018-11-27T17:43:59.958Z,24.17
2018-11-27T17:48:08.308Z,26.13
2018-11-27T17:52:16.625Z,24.43
2018-11-27T17:56:24.915Z,28.03
2018-11-27T18:00:33.311Z,30.90
2018-11-27T18:04:41.571Z,33.87
2018-11-27T18:08:49.919Z,25.23
2018-11-27T18:12:58.209Z,32.27
2018-11-27T18:17:06.463Z,28.40
2018-11-27T18:21:14.763Z,27.37
2018-11-27T18:25:23.071Z,26.30
2018-11-27T18:29:31.426Z,21.37
2018-11-27T18:33:39.898Z,21.00
2018-11-27T18:37:48.364Z,25.90
2018-11-27T18:41:56.715Z,24.37
2018-11-27T18:46:05.169Z,20.97
2018-11-27T18:50:13.606Z,24.03
2018-11-27T18:54:21.937Z,25.07
2018-11-27T18:58:30.253Z,23.53
2018-11-27T19:02:38.526Z,21.10
2018-11-27T19:06:46.834Z,20.50
2018-11-27T19:10:55.216Z,20.00
2018-11-27T19:15:03.550Z,22.87
2018-11-27T19:19:11.909Z,18.63
2018-11-27T19:23:21.495Z,27.57
2018-11-27T19:27:29.794Z,22.03
2018-11-27T19:31:37.833Z,25.37
2018-11-27T19:35:46.110Z,24.57
2018-11-27T19:39:54.397Z,21.80
2018-11-27T19:44:02.670Z,17.70
2018-11-27T19:48:11.619Z,20.63
2018-11-27T19:52:20.519Z,20.83
2018-11-27T19:56:28.777Z,20.00
2018-11-27T20:00:37.293Z,20.97
2018-11-27T20:04:45.685Z,27.23
2018-11-27T20:08:54.012Z,27.23
2018-11-27T20:13:02.284Z,18.83
2018-11-27T20:17:10.627Z,16.67
2018-11-27T20:21:18.924Z,20.70
2018-11-27T20:25:27.265Z,28.10
2018-11-27T20:29:35.520Z,24.43
2018-11-27T20:33:43.894Z,23.17
2018-11-27T20:37:53.088Z,24.40
2018-11-27T20:42:01.430Z,32.00
2018-11-27T20:46:09.709Z,29.00
2018-11-27T20:50:21.094Z,20.60
2018-11-27T20:54:29.353Z,30.97
2018-11-27T20:58:37.795Z,29.53
2018-11-27T21:02:46.797Z,31.37
2018-11-27T21:06:55.083Z,26.13
2018-11-27T21:11:08.234Z,23.40
2018-11-27T21:15:15.804Z,30.53
2018-11-27T21:19:24.115Z,25.53
2018-11-27T21:23:32.476Z,23.60
2018-11-27T21:27:40.964Z,21.70
2018-11-27T21:31:49.334Z,25.77
2018-11-27T21:35:57.634Z,29.50
2018-11-27T21:40:10.674Z,24.93
2018-11-27T21:44:18.978Z,28.00
2018-11-27T21:48:27.284Z,29.07
2018-11-27T21:52:35.577Z,30.03
2018-11-27T21:56:43.923Z,23.10
2018-11-27T22:00:52.249Z,30.67
2018-11-27T22:05:00.511Z,25.90
2018-11-27T22:09:08.845Z,22.47
2018-11-27T22:13:17.194Z,27.43
2018-11-27T22:17:25.479Z,26.87
2018-11-27T22:21:33.800Z,27.73
2018-11-27T22:25:42.178Z,28.57
2018-11-27T22:29:50.469Z,30.83
2018-11-27T22:34:20.990Z,25.00
2018-11-27T22:38:29.267Z,32.27
2018-11-27T22:42:37.643Z,32.23
2018-11-27T22:46:45.969Z,36.00
2018-11-27T22:50:54.286Z,27.83
2018-11-27T22:55:02.606Z,29.83
2018-11-27T22:59:10.908Z,32.60
2018-11-27T23:03:19.540Z,29.20
2018-11-27T23:07:33.314Z,29.60
2018-11-27T23:11:41.677Z,29.40
2018-11-27T23:15:49.995Z,31.07
2018-11-27T23:19:58.291Z,26.83
2018-11-27T23:24:06.583Z,30.23
2018-11-27T23:28:14.862Z,27.53
2018-11-27T23:32:23.353Z,27.73
2018-11-27T23:36:31.673Z,23.70
2018-11-27T23:40:40.021Z,27.93
2018-11-27T23:44:48.336Z,24.53
2018-11-27T23:48:56.691Z,29.17
2018-11-27T23:53:05.364Z,27.13
2018-11-27T23:57:13.726Z,26.60
